createdAt,value
2019-02-22T00:00:18.254Z,40.50
2019-02-22T00:02:48.518Z,35.67
2019-02-22T00:05:17.988Z,39.37
2019-02-22T00:07:49.875Z,37.60
2019-02-22T00:10:19.290Z,38.03
2019-02-22T00:12:49.446Z,37.00
2019-02-22T00:15:18.812Z,37.50
2019-02-22T00:17:48.096Z,37.60
2019-02-22T00:20:17.270Z,36.77
2019-02-22T00:22:46.694Z,41.57
2019-02-22T00:25:17.763Z,37.90
2019-02-22T00:27:48.141Z,40.07
2019-02-22T00:30:18.350Z,38.40
2019-02-22T00:32:47.501Z,45.47
2019-02-22T00:35:17.221Z,41.13
2019-02-22T00:37:47.389Z,37.73
2019-02-22T00:40:17.205Z,42.17
2019-02-22T00:42:50.370Z,40.40
2019-02-22T00:45:20.724Z,38.90
2019-02-22T00:47:50.225Z,41.03
2019-02-22T00:50:19.486Z,38.67
2019-02-22T00:52:48.552Z,41.47
2019-02-22T00:55:18.326Z,40.27
2019-02-22T00:57:50.498Z,37.20
2019-02-22T01:00:20.918Z,40.07
2019-02-22T01:02:50.257Z,32.97
2019-02-22T01:05:19.591Z,37.13
2019-02-22T01:07:48.888Z,35.80
2019-02-22T01:10:30.263Z,36.63
2019-02-22T01:12:50.834Z,37.57
2019-02-22T01:15:21.163Z,38.53
2019-02-22T01:17:50.900Z,35.57
2019-02-22T01:20:20.090Z,40.53
2019-02-22T01:22:49.461Z,34.60
2019-02-22T01:25:18.874Z,32.83
2019-02-22T01:27:48.153Z,38.97
2019-02-22T01:30:17.389Z,39.17
2019-02-22T01:32:46.666Z,38.20
2019-02-22T01:35:17.576Z,36.13
2019-02-22T01:37:47.852Z,38.43
2019-02-22T01:40:17.317Z,39.63
2019-02-22T01:42:46.632Z,35.30
2019-02-22T01:45:15.813Z,35.30
2019-02-22T01:47:45.119Z,37.83
2019-02-22T01:50:16.970Z,38.77
2019-02-22T01:52:47.798Z,37.93
2019-02-22T01:55:17.108Z,34.57
2019-02-22T01:57:47.226Z,38.40
2019-02-22T02:00:16.843Z,39.63
2019-02-22T02:02:46.901Z,35.70
2019-02-22T02:05:16.308Z,37.90
2019-02-22T02:07:45.665Z,39.20
2019-02-22T02:10:17.566Z,34.77
2019-02-22T02:12:47.886Z,37.33
2019-02-22T02:15:17.142Z,41.67
2019-02-22T02:17:46.571Z,35.73
2019-02-22T02:20:15.922Z,42.60
2019-02-22T02:22:45.431Z,36.03
2019-02-22T02:25:15.633Z,36.87
2019-02-22T02:27:44.820Z,38.60
2019-02-22T02:30:14.860Z,43.63
2019-02-22T02:32:44.894Z,48.87
2019-02-22T02:35:14.302Z,51.67
2019-02-22T02:37:43.523Z,50.70
2019-02-22T02:40:12.820Z,48.80
2019-02-22T02:42:42.135Z,44.20
2019-02-22T02:45:12.676Z,52.23
2019-02-22T02:47:44.049Z,45.50
2019-02-22T02:50:17.354Z,47.13
2019-02-22T02:52:46.625Z,46.63
2019-02-22T02:55:32.287Z,45.57
2019-02-22T02:58:01.606Z,43.17
2019-02-22T03:00:30.783Z,46.53
2019-02-22T03:03:00.199Z,41.70
2019-02-22T03:05:47.146Z,44.97
2019-02-22T03:08:17.447Z,41.70
2019-02-22T03:10:46.553Z,41.93
2019-02-22T03:13:17.732Z,42.80
2019-02-22T03:15:47.987Z,45.30
2019-02-22T03:18:17.276Z,43.77
2019-02-22T03:20:46.659Z,42.93
2019-02-22T03:23:16.861Z,45.53
2019-02-22T03:25:46.444Z,47.60
2019-02-22T03:28:16.745Z,41.40
2019-02-22T03:30:47.748Z,41.87
2019-02-22T03:33:17.939Z,39.37
2019-02-22T03:35:47.291Z,41.87
2019-02-22T03:38:16.580Z,48.63
2019-02-22T03:40:45.805Z,47.80
2019-02-22T03:43:15.266Z,44.90
2019-02-22T03:45:44.569Z,43.17
2019-02-22T03:48:13.821Z,43.07
2019-02-22T03:50:44.923Z,44.57
2019-02-22T03:53:18.629Z,48.70
2019-02-22T03:55:48.820Z,41.63
2019-02-22T03:58:18.017Z,42.70
2019-02-22T04:00:47.232Z,45.70
2019-02-22T04:03:16.519Z,45.23
2019-02-22T04:05:45.826Z,47.90
2019-02-22T04:08:15.883Z,41.27
2019-02-22T04:10:46.142Z,42.33
2019-02-22T04:13:16.442Z,45.40
2019-02-22T04:15:45.781Z,44.17
2019-02-22T04:18:15.110Z,48.67
2019-02-22T04:20:44.510Z,46.93
2019-02-22T04:23:14.717Z,41.90
2019-02-22T04:25:45.629Z,40.70
2019-02-22T04:28:15.850Z,47.50
2019-02-22T04:30:45.827Z,48.27
2019-02-22T04:33:17.022Z,53.43
2019-02-22T04:35:47.377Z,49.37
2019-02-22T04:38:17.814Z,53.47
2019-02-22T04:40:48.501Z,55.47
2019-02-22T04:43:19.273Z,61.30
2019-02-22T04:45:49.521Z,63.13
2019-02-22T04:48:19.186Z,62.57
2019-02-22T04:50:48.901Z,59.57
2019-02-22T04:53:18.315Z,63.50
2019-02-22T04:55:48.557Z,63.37
2019-02-22T04:58:19.692Z,69.83
2019-02-22T05:00:49.454Z,69.80
2019-02-22T05:03:19.690Z,69.27
2019-02-22T05:05:48.970Z,61.73
2019-02-22T05:08:18.936Z,67.43
2019-02-22T05:10:49.048Z,64.37
2019-02-22T05:13:18.915Z,67.07
2019-02-22T05:15:49.837Z,64.13
2019-02-22T05:18:20.005Z,69.30
2019-02-22T05:20:49.413Z,64.43
2019-02-22T05:23:19.654Z,65.17
2019-02-22T05:25:49.231Z,67.07
2019-02-22T05:28:19.339Z,64.27
2019-02-22T05:30:48.561Z,71.47
2019-02-22T05:33:19.589Z,63.67
2019-02-22T05:35:49.968Z,62.50
2019-02-22T05:38:19.100Z,69.23
2019-02-22T05:40:48.469Z,64.77
2019-02-22T05:43:17.831Z,69.30
2019-02-22T05:45:48.051Z,74.37
2019-02-22T05:48:17.251Z,68.73
2019-02-22T05:50:46.857Z,67.40
2019-02-22T05:53:17.823Z,66.63
2019-02-22T05:55:47.892Z,70.40
2019-02-22T05:58:17.223Z,66.60
2019-02-22T06:00:47.362Z,65.23
2019-02-22T06:03:17.123Z,68.50
2019-02-22T06:05:47.643Z,66.40
2019-02-22T06:08:16.960Z,70.03
2019-02-22T06:10:47.961Z,70.37
2019-02-22T06:13:18.126Z,65.50
2019-02-22T06:15:47.392Z,70.53
2019-02-22T06:18:16.997Z,66.80
2019-02-22T06:20:46.993Z,71.93
2019-02-22T06:23:17.085Z,71.37
2019-02-22T06:25:47.126Z,70.47
2019-02-22T06:28:17.974Z,69.77
2019-02-22T06:30:48.118Z,73.07
2019-02-22T06:33:17.442Z,69.03
2019-02-22T06:35:46.835Z,68.57
2019-02-22T06:38:16.864Z,64.30
2019-02-22T06:40:48.138Z,64.97
2019-02-22T06:43:17.706Z,74.53
2019-02-22T06:45:48.638Z,73.03
2019-02-22T06:48:19.149Z,72.90
2019-02-22T06:50:48.271Z,68.90
2019-02-22T06:53:18.286Z,68.23
2019-02-22T06:55:48.190Z,69.33
2019-02-22T06:58:17.527Z,71.90
2019-02-22T07:00:47.282Z,76.37
2019-02-22T07:03:18.783Z,73.87
2019-02-22T07:05:50.075Z,67.87
2019-02-22T07:08:19.429Z,64.57
2019-02-22T07:11:00.452Z,66.30
2019-02-22T07:13:31.131Z,65.60
2019-02-22T07:16:01.434Z,67.20
2019-02-22T07:18:30.849Z,64.67
2019-02-22T07:21:00.791Z,66.47
2019-02-22T07:23:30.511Z,63.73
2019-02-22T07:25:59.998Z,59.27
2019-02-22T07:28:29.183Z,64.43
2019-02-22T07:31:00.893Z,61.97
2019-02-22T07:33:30.274Z,61.90
2019-02-22T07:35:59.422Z,64.70
2019-02-22T07:38:28.866Z,64.37
2019-02-22T07:40:58.973Z,62.53
2019-02-22T07:43:28.563Z,60.33
2019-02-22T07:45:57.732Z,61.77
2019-02-22T07:48:28.709Z,66.73
2019-02-22T07:50:59.172Z,59.50
2019-02-22T07:53:29.377Z,62.03
2019-02-22T07:55:59.031Z,61.23
2019-02-22T07:58:29.181Z,60.67
2019-02-22T08:00:58.490Z,62.13
2019-02-22T08:03:28.320Z,50.20
2019-02-22T08:05:58.899Z,53.47
2019-02-22T08:08:28.851Z,51.73
2019-02-22T08:10:58.303Z,47.48
2019-02-22T08:13:27.742Z,42.03
2019-02-22T08:15:57.487Z,49.63
2019-02-22T08:18:27.277Z,47.80
2019-02-22T08:20:58.301Z,47.27
2019-02-22T08:23:30.286Z,44.87
2019-02-22T08:26:00.294Z,41.97
2019-02-22T08:28:30.463Z,44.47
2019-02-22T08:31:02.131Z,41.50
2019-02-22T08:33:31.917Z,43.77
2019-02-22T08:36:01.931Z,39.37
2019-02-22T08:38:32.626Z,39.57
2019-02-22T08:41:03.320Z,36.70
2019-02-22T08:43:33.660Z,36.43
2019-02-22T08:46:03.366Z,39.10
2019-02-22T08:48:33.454Z,34.43
2019-02-22T08:51:03.637Z,41.07
2019-02-22T08:53:33.285Z,36.07
2019-02-22T08:56:05.067Z,35.03
2019-02-22T08:58:35.497Z,29.90
2019-02-22T09:01:05.254Z,28.97
2019-02-22T09:03:35.405Z,33.80
2019-02-22T09:06:05.563Z,31.50
2019-02-22T09:08:35.110Z,29.33
2019-02-22T09:11:05.879Z,28.17
2019-02-22T09:13:43.518Z,29.70
2019-02-22T09:16:07.719Z,28.07
2019-02-22T09:18:37.185Z,25.23
2019-02-22T09:21:17.016Z,27.60
2019-02-22T09:23:47.057Z,26.90
2019-02-22T09:26:16.677Z,29.03
2019-02-22T09:28:46.216Z,26.63
2019-02-22T09:31:16.056Z,25.33
2019-02-22T09:33:45.516Z,32.67
2019-02-22T09:36:15.360Z,24.97
2019-02-22T09:38:46.343Z,29.93
2019-02-22T09:41:16.377Z,32.03
2019-02-22T09:43:54.709Z,25.20
2019-02-22T09:46:19.105Z,24.03
2019-02-22T09:48:48.725Z,27.10
2019-02-22T09:51:17.908Z,23.80
2019-02-22T09:53:48.864Z,28.60
2019-02-22T09:56:18.967Z,27.13
2019-02-22T09:58:48.453Z,28.47
2019-02-22T10:01:18.228Z,24.10
2019-02-22T10:03:48.016Z,24.83
2019-02-22T10:06:17.764Z,25.63
2019-02-22T10:08:47.074Z,21.00
2019-02-22T10:11:18.899Z,21.27
2019-02-22T10:13:48.186Z,23.23
2019-02-22T10:16:17.384Z,19.80
2019-02-22T10:18:47.054Z,26.10
2019-02-22T10:21:17.221Z,18.27
2019-02-22T10:23:46.617Z,15.67
2019-02-22T10:26:16.932Z,16.67
2019-02-22T10:28:48.096Z,15.50
2019-02-22T10:31:18.315Z,18.87
2019-02-22T10:33:48.559Z,19.57
2019-02-22T10:36:18.750Z,16.50
2019-02-22T10:38:49.717Z,19.10
2019-02-22T10:41:20.158Z,16.00
2019-02-22T10:43:50.875Z,17.17
2019-02-22T10:46:22.297Z,17.17
2019-02-22T10:48:52.856Z,17.80
2019-02-22T10:51:23.159Z,15.77
2019-02-22T10:53:53.514Z,16.93
2019-02-22T10:56:22.787Z,18.90
2019-02-22T10:58:51.980Z,18.27
2019-02-22T11:01:23.927Z,21.20
2019-02-22T11:03:53.217Z,17.80
2019-02-22T11:06:22.527Z,16.13
2019-02-22T11:08:51.827Z,13.53
2019-02-22T11:11:21.026Z,12.43
2019-02-22T11:13:50.452Z,14.83
2019-02-22T11:16:19.671Z,12.23
2019-02-22T11:18:49.253Z,11.20
2019-02-22T11:21:20.901Z,14.10
2019-02-22T11:23:50.365Z,12.37
2019-02-22T11:26:20.663Z,13.20
2019-02-22T11:28:49.969Z,12.87
2019-02-22T11:31:19.330Z,10.83
2019-02-22T11:33:49.591Z,11.43
2019-02-22T11:36:21.355Z,10.00
2019-02-22T11:38:51.942Z,10.57
2019-02-22T11:41:21.329Z,10.33
2019-02-22T11:43:50.642Z,10.20
2019-02-22T11:46:20.029Z,7.93
2019-02-22T11:48:49.831Z,6.43
2019-02-22T11:51:19.798Z,4.87
2019-02-22T11:53:48.885Z,6.30
2019-02-22T11:56:19.822Z,12.07
2019-02-22T11:58:49.250Z,6.60
2019-02-22T12:01:18.797Z,8.83
2019-02-22T12:03:48.346Z,5.93
2019-02-22T12:06:18.685Z,12.17
2019-02-22T12:08:48.560Z,8.97
2019-02-22T12:11:18.152Z,6.43
2019-02-22T12:13:49.857Z,5.73
2019-02-22T12:16:20.961Z,6.67
2019-02-22T12:18:52.629Z,14.00
2019-02-22T12:21:23.181Z,7.50
2019-02-22T12:23:53.567Z,8.23
2019-02-22T12:26:25.703Z,5.67
2019-02-22T12:28:57.181Z,5.57
2019-02-22T12:31:26.687Z,4.90
2019-02-22T12:33:57.127Z,8.60
2019-02-22T12:36:26.523Z,7.37
2019-02-22T12:38:56.568Z,5.10
2019-02-22T12:41:25.943Z,5.00
2019-02-22T12:43:56.077Z,4.27
2019-02-22T12:46:26.240Z,4.40
2019-02-22T12:48:56.405Z,6.83
2019-02-22T12:51:26.454Z,6.47
2019-02-22T12:53:56.660Z,9.33
2019-02-22T12:56:55.916Z,4.17
2019-02-22T12:59:00.065Z,4.97
2019-02-22T13:01:30.744Z,4.70
2019-02-22T13:04:00.786Z,5.33
2019-02-22T13:06:30.301Z,5.17
2019-02-22T13:09:00.624Z,3.93
2019-02-22T13:11:30.724Z,7.10
2019-02-22T13:14:01.542Z,5.63
2019-02-22T13:16:32.021Z,5.47
2019-02-22T13:19:01.303Z,4.63
2019-02-22T13:21:30.511Z,9.03
2019-02-22T13:23:59.867Z,5.73
2019-02-22T13:26:29.197Z,5.77
2019-02-22T13:28:58.391Z,6.20
2019-02-22T13:31:30.353Z,6.33
2019-02-22T13:34:00.925Z,6.67
2019-02-22T13:36:30.299Z,6.60
2019-02-22T13:38:59.582Z,7.47
2019-02-22T13:41:28.814Z,5.73
2019-02-22T13:43:58.288Z,10.33
2019-02-22T13:46:28.626Z,6.20
2019-02-22T13:48:57.830Z,7.60
2019-02-22T13:51:28.957Z,7.53
2019-02-22T13:53:59.872Z,6.97
2019-02-22T13:56:30.138Z,7.83
2019-02-22T13:58:59.944Z,7.90
2019-02-22T14:01:29.326Z,7.70
2019-02-22T14:03:59.977Z,7.80
2019-02-22T14:06:31.789Z,7.93
2019-02-22T14:09:01.960Z,7.53
2019-02-22T14:11:31.927Z,7.60
2019-02-22T14:14:01.867Z,10.70
2019-02-22T14:16:31.497Z,7.00
2019-02-22T14:19:01.834Z,14.07
2019-02-22T14:21:32.072Z,7.10
2019-02-22T14:24:02.119Z,13.33
2019-02-22T14:26:32.180Z,11.17
2019-02-22T14:29:01.615Z,8.90
2019-02-22T14:31:31.267Z,8.13
2019-02-22T14:34:01.373Z,9.00
2019-02-22T14:36:31.540Z,8.47
2019-02-22T14:39:00.832Z,8.97
2019-02-22T14:41:30.713Z,10.60
2019-02-22T14:44:01.969Z,12.63
2019-02-22T14:46:31.640Z,11.27
2019-02-22T14:49:01.197Z,8.17
2019-02-22T14:51:31.162Z,11.70
2019-02-22T14:54:00.427Z,9.50
2019-02-22T14:56:30.157Z,9.30
2019-02-22T14:58:59.609Z,8.70
2019-02-22T15:01:31.702Z,9.87
2019-02-22T15:04:02.517Z,11.27
2019-02-22T15:06:32.352Z,9.13
2019-02-22T15:09:02.108Z,9.63
2019-02-22T15:11:39.961Z,10.93
2019-02-22T15:14:09.358Z,9.80
2019-02-22T15:16:56.949Z,12.30
2019-02-22T15:19:26.510Z,8.77
2019-02-22T15:21:56.992Z,9.70
2019-02-22T15:24:26.867Z,9.57
2019-02-22T15:26:56.802Z,8.43
2019-02-22T15:29:27.616Z,9.50
2019-02-22T15:32:00.340Z,9.20
2019-02-22T15:34:33.368Z,10.43
2019-02-22T15:37:05.611Z,8.57
2019-02-22T15:39:35.386Z,13.90
2019-02-22T15:42:06.081Z,11.73
2019-02-22T15:44:37.187Z,12.93
2019-02-22T15:47:11.659Z,13.57
2019-02-22T15:49:37.850Z,9.37
2019-02-22T15:52:10.239Z,10.73
2019-02-22T15:54:41.526Z,10.53
2019-02-22T15:57:12.192Z,18.17
2019-02-22T15:59:41.808Z,12.93
2019-02-22T16:02:11.942Z,10.30
2019-02-22T16:04:45.058Z,10.03
2019-02-22T16:07:14.222Z,16.77
2019-02-22T16:09:44.963Z,13.23
2019-02-22T16:12:15.058Z,11.17
2019-02-22T16:14:44.464Z,12.43
2019-02-22T16:17:13.661Z,12.70
2019-02-22T16:19:43.110Z,9.97
2019-02-22T16:22:12.408Z,15.00
2019-02-22T16:24:41.605Z,12.67
2019-02-22T16:27:11.270Z,11.40
2019-02-22T16:29:42.004Z,13.40
2019-02-22T16:32:12.174Z,11.80
2019-02-22T16:34:43.767Z,17.63
2019-02-22T16:37:13.161Z,10.77
2019-02-22T16:39:42.585Z,13.60
2019-02-22T16:42:12.790Z,11.37
2019-02-22T16:44:44.946Z,12.40
2019-02-22T16:47:15.379Z,19.20
2019-02-22T16:49:45.656Z,11.90
2019-02-22T16:52:15.842Z,15.43
2019-02-22T16:54:45.738Z,14.50
2019-02-22T16:57:15.162Z,18.17
2019-02-22T16:59:44.661Z,13.30
2019-02-22T17:02:15.004Z,14.17
2019-02-22T17:04:45.943Z,15.57
2019-02-22T17:07:15.369Z,14.37
2019-02-22T17:09:44.719Z,16.07
2019-02-22T17:12:13.823Z,16.47
2019-02-22T17:17:40.092Z,13.43
2019-02-22T17:20:14.508Z,18.53
2019-02-22T17:22:43.900Z,17.43
2019-02-22T17:25:21.913Z,13.20
2019-02-22T17:27:51.955Z,15.60
2019-02-22T17:30:23.864Z,12.63
2019-02-22T17:32:53.494Z,19.57
2019-02-22T17:35:23.540Z,14.47
2019-02-22T17:37:53.710Z,12.77
2019-02-22T17:40:29.161Z,17.40
2019-02-22T17:42:58.560Z,25.57
2019-02-22T17:45:27.908Z,15.43
2019-02-22T17:47:58.063Z,15.73
2019-02-22T17:50:28.210Z,16.00
2019-02-22T17:52:57.976Z,15.37
2019-02-22T17:55:28.095Z,17.57
2019-02-22T17:57:58.113Z,14.00
2019-02-22T18:00:27.422Z,14.23
2019-02-22T18:02:57.388Z,15.13
2019-02-22T18:05:26.879Z,13.87
2019-02-22T18:07:57.073Z,15.17
2019-02-22T18:10:26.299Z,13.53
2019-02-22T18:12:55.625Z,16.60
2019-02-22T18:15:27.269Z,16.63
2019-02-22T18:17:57.231Z,20.23
2019-02-22T18:20:26.365Z,15.93
2019-02-22T18:22:56.065Z,16.17
2019-02-22T18:25:25.799Z,16.93
2019-02-22T18:27:55.283Z,19.37
2019-02-22T18:30:25.742Z,17.33
2019-02-22T18:32:56.477Z,15.17
2019-02-22T18:35:26.552Z,18.00
2019-02-22T18:37:55.872Z,19.53
2019-02-22T18:40:25.635Z,18.80
2019-02-22T18:42:54.891Z,19.33
2019-02-22T18:45:24.673Z,18.53
2019-02-22T18:47:54.503Z,19.27
2019-02-22T18:50:25.443Z,15.90
2019-02-22T18:52:56.234Z,17.70
2019-02-22T18:55:25.789Z,16.07
2019-02-22T18:57:55.928Z,17.27
2019-02-22T19:00:26.005Z,16.53
2019-02-22T19:02:55.398Z,21.00
2019-02-22T19:05:24.903Z,16.97
2019-02-22T19:07:55.996Z,19.97
2019-02-22T19:10:26.048Z,18.97
2019-02-22T19:12:55.480Z,16.00
2019-02-22T19:15:24.806Z,16.73
2019-02-22T19:17:56.392Z,16.80
2019-02-22T19:20:26.120Z,18.60
2019-02-22T19:22:55.879Z,19.30
2019-02-22T19:25:27.869Z,15.47
2019-02-22T19:27:57.225Z,19.70
2019-02-22T19:30:29.156Z,17.03
2019-02-22T19:32:59.087Z,17.33
2019-02-22T19:35:28.305Z,17.57
2019-02-22T19:37:58.639Z,18.40
2019-02-22T19:40:29.639Z,15.13
2019-02-22T19:42:58.865Z,16.37
2019-02-22T19:45:28.266Z,20.80
2019-02-22T19:47:58.508Z,19.43
2019-02-22T19:50:28.871Z,21.47
2019-02-22T19:52:58.548Z,22.27
2019-02-22T19:55:27.832Z,24.70
2019-02-22T19:57:58.921Z,16.77
2019-02-22T20:00:29.275Z,17.77
2019-02-22T20:02:59.581Z,19.23
2019-02-22T20:05:28.787Z,16.23
2019-02-22T20:07:58.718Z,14.97
2019-02-22T20:10:28.045Z,18.70
2019-02-22T20:12:57.887Z,16.20
2019-02-22T20:15:28.842Z,17.30
2019-02-22T20:17:58.809Z,17.40
2019-02-22T20:20:28.385Z,17.93
2019-02-22T20:22:57.629Z,16.27
2019-02-22T20:25:27.694Z,21.23
2019-02-22T20:27:56.889Z,18.40
2019-02-22T20:30:26.421Z,21.33
2019-02-22T20:32:55.831Z,19.47
2019-02-22T20:35:28.587Z,18.35
2019-02-22T20:37:58.558Z,18.63
2019-02-22T20:40:27.904Z,17.93
2019-02-22T20:42:57.805Z,19.67
2019-02-22T20:45:27.603Z,17.93
2019-02-22T20:48:04.796Z,22.43
2019-02-22T20:50:29.057Z,18.00
2019-02-22T20:52:58.497Z,18.82
2019-02-22T20:55:28.454Z,18.30
2019-02-22T20:57:58.627Z,21.87
2019-02-22T21:00:29.422Z,20.10
2019-02-22T21:02:58.762Z,18.83
2019-02-22T21:05:28.166Z,24.07
2019-02-22T21:08:00.024Z,17.53
2019-02-22T21:10:29.752Z,23.97
2019-02-22T21:12:59.498Z,20.17
2019-02-22T21:15:28.998Z,23.03
2019-02-22T21:17:58.999Z,19.87
2019-02-22T21:20:28.529Z,20.77
2019-02-22T21:22:57.849Z,18.93
2019-02-22T21:25:27.293Z,21.60
2019-02-22T21:27:59.288Z,20.53
2019-02-22T21:30:28.421Z,20.60
2019-02-22T21:32:57.783Z,20.30
2019-02-22T21:35:28.268Z,19.27
2019-02-22T21:37:57.619Z,19.77
2019-02-22T21:40:26.758Z,17.23
2019-02-22T21:42:56.778Z,20.60
2019-02-22T21:45:28.008Z,18.90
2019-02-22T21:48:07.674Z,18.06
2019-02-22T21:50:37.190Z,19.87
2019-02-22T21:53:09.330Z,21.80
2019-02-22T21:55:39.917Z,19.57
2019-02-22T21:58:10.011Z,20.37
2019-02-22T22:00:39.993Z,19.73
2019-02-22T22:03:10.045Z,23.47
2019-02-22T22:05:40.244Z,18.07
2019-02-22T22:08:10.608Z,18.87
2019-02-22T22:10:42.330Z,21.13
2019-02-22T22:13:12.063Z,21.00
2019-02-22T22:15:42.069Z,20.43
2019-02-22T22:18:12.121Z,26.53
2019-02-22T22:20:43.439Z,21.10
2019-02-22T22:23:12.801Z,18.43
2019-02-22T22:25:43.370Z,19.10
2019-02-22T22:28:13.498Z,19.03
2019-02-22T22:30:42.765Z,19.80
2019-02-22T22:33:11.969Z,18.40
2019-02-22T22:35:42.178Z,18.30
2019-02-22T22:38:12.117Z,19.10
2019-02-22T22:40:42.094Z,26.93
2019-02-22T22:43:13.999Z,23.93
2019-02-22T22:45:43.617Z,18.03
2019-02-22T22:48:13.675Z,21.27
2019-02-22T22:50:46.787Z,17.40
2019-02-22T22:53:16.501Z,19.53
2019-02-22T22:55:46.371Z,19.73
2019-02-22T22:58:16.355Z,17.60
2019-02-22T23:01:04.043Z,23.83
2019-02-22T23:03:34.350Z,18.43
2019-02-22T23:06:03.942Z,21.70
2019-02-22T23:08:34.131Z,21.20
2019-02-22T23:11:03.914Z,18.60
2019-02-22T23:13:33.783Z,18.33
2019-02-22T23:16:03.071Z,20.90
2019-02-22T23:18:34.149Z,21.07
2019-02-22T23:21:03.633Z,19.90
2019-02-22T23:23:33.674Z,20.20
2019-02-22T23:26:03.780Z,16.67
2019-02-22T23:28:33.391Z,17.80
2019-02-22T23:31:03.028Z,18.53
2019-02-22T23:33:33.159Z,17.43
2019-02-22T23:36:03.706Z,19.57
2019-02-22T23:38:34.927Z,21.30
2019-02-22T23:41:04.424Z,18.30
2019-02-22T23:43:33.975Z,16.83
2019-02-22T23:46:03.437Z,19.20
2019-02-22T23:48:32.907Z,18.43
2019-02-22T23:51:03.064Z,19.10
2019-02-22T23:53:32.329Z,16.70
2019-02-22T23:56:02.221Z,17.07
2019-02-22T23:58:32.218Z,18.47
